Latest Weather Observations for Laverton

IDV60901

Issued at 8:31 am EST Tuesday 26 September 2017 (issued every 10 minutes, with the page automatically refreshed every 10 minutes)

About weather observations | Map of Melbourne area stations | Latest observations for Melbourne area | Other Formats
Station Details ID: 087031 Name: LAVERTON RAAF Lat: -37.86 Lon: 144.76 Height: 20.1 m
Data from the previous 72 hours. | See also: Recent months at Laverton
Date/Time
EST
Temp
°C
App
Temp
°C
Dew
Point
°C
Rel
Hum
%
Delta-T
°C
Wind Press
QNH
hPa
Press
MSL
hPa
Rain since
9am
mm
Dir  Spd
km/h
Gust
km/h
Spd
kts
Gust
kts
26/08:30am 9.9 7.5 5.3 73 2.1 W 7 9 4 5 1018.4 1018.4 0.4
26/08:00am 7.8 5.0 5.3 84 1.1 NNW 9 11 5 6 1018.3 1018.3 0.4
26/07:30am 5.8 3.3 4.9 94 0.4 NNW 7 9 4 5 1018.3 1018.3 0.4
26/07:00am 4.1 1.6 3.8 98 0.1 NE 6 7 3 4 1018.0 1018.0 0.4
26/06:30am 3.1 -0.1 3.0 99 0.0 N 9 11 5 6 1017.8 1017.8 0.4
26/06:00am 2.2 0.1 1.8 97 0.2 NW 2 6 1 3 1017.3 1017.3 0.4
26/05:30am 2.7 -0.1 2.3 97 0.2 WNW 6 7 3 4 1016.9 1016.9 0.4
26/05:00am 2.7 -0.7 2.1 96 0.2 WNW 9 11 5 6 1016.7 1016.7 0.4
26/04:30am 2.5 -1.3 1.9 96 0.2 NW 11 13 6 7 1016.6 1016.6 0.4
26/04:00am 2.7 -1.8 2.1 96 0.2 NW 15 17 8 9 1016.5 1016.5 0.4
26/03:30am 3.6 -0.4 3.0 96 0.2 NW 13 17 7 9 1016.5 1016.5 0.4
26/03:00am 3.5 -0.5 2.6 94 0.4 NW 13 17 7 9 1016.5 1016.5 0.4
26/02:30am 4.1 0.6 3.4 95 0.3 WNW 11 13 6 7 1016.5 1016.5 0.4
26/02:00am 3.9 -0.5 2.7 92 0.5 NW 15 17 8 9 1016.6 1016.6 0.4
26/01:30am 4.7 1.1 3.2 90 0.6 NW 11 15 6 8 1016.5 1016.5 0.4
26/01:00am 6.0 2.2 3.8 86 0.9 WNW 13 15 7 8 1016.4 1016.4 0.4
26/12:30am 5.3 1.9 4.0 91 0.5 WNW 11 13 6 7 1016.4 1016.4 0.4
26/12:00am 5.3 1.5 4.0 91 0.5 NW 13 15 7 8 1016.2 1016.2 0.4
 
Date/Time
EST
Temp
°C
App
Temp
°C
Dew
Point
°C
Rel
Hum
%
Delta-T
°C
Wind Press
QNH
hPa
Press
MSL
hPa
Rain since
9am
mm
Dir  Spd
km/h
Gust
km/h
Spd
kts
Gust
kts
25/11:30pm 5.0 1.2 3.7 91 0.5 NW 13 17 7 9 1016.1 1016.1 0.4
25/11:00pm 4.8 0.9 3.3 90 0.6 NW 13 15 7 8 1016.1 1016.1 0.4
25/10:30pm 5.3 1.1 3.6 89 0.7 NW 15 17 8 9 1016.1 1016.1 0.4
25/10:00pm 5.6 2.2 3.8 88 0.8 WNW 11 13 6 7 1015.9 1015.9 0.4
25/09:30pm 5.9 2.1 4.1 88 0.8 WNW 13 13 7 7 1015.8 1015.8 0.4
25/09:00pm 6.3 2.9 3.8 84 1.1 NW 11 13 6 7 1015.6 1015.6 0.4
25/08:30pm 7.9 5.0 4.5 79 1.5 WNW 9 13 5 7 1015.2 1015.2 0.4
25/08:00pm 9.7 6.4 4.7 71 2.2 W 11 15 6 8 1014.8 1014.8 0.4
25/07:30pm 10.4 6.4 5.0 69 2.4 W 15 22 8 12 1014.3 1014.3 0.4
25/07:00pm 10.9 6.5 5.0 67 2.7 W 17 22 9 12 1014.0 1014.0 0.4
25/06:30pm 11.5 7.5 4.9 64 3.0 WSW 15 20 8 11 1013.6 1013.6 0.4
25/06:00pm 12.1 6.7 4.6 60 3.4 WSW 22 30 12 16 1013.1 1013.1 0.4
25/05:30pm 13.1 7.7 4.5 56 3.9 WSW 22 32 12 17 1012.8 1012.8 0.4
25/05:00pm 12.6 7.5 6.0 64 3.1 SW 22 32 12 17 1012.5 1012.5 0.4
25/04:30pm 13.7 9.4 6.8 63 3.3 SSW 19 26 10 14 1011.8 1011.8 0.4
25/04:00pm 13.1 8.8 8.0 71 2.5 SSE 20 32 11 17 1011.5 1011.6 0.4
25/03:49pm 13.7 7.1 7.7 67 3.0 SW 32 52 17 28 1011.0 1011.1 0.4
25/03:48pm 14.0 6.9 6.6 61 3.6 SW 33 52 18 28 1010.9 1011.0 0.4
25/03:30pm 14.7 9.8 5.2 53 4.5 WSW 20 33 11 18 1010.7 1010.8 0.4
25/03:00pm 14.4 8.1 5.7 56 4.1 WSW 28 41 15 22 1010.4 1010.5 0.4
25/02:30pm 15.1 9.3 6.1 55 4.3 WSW 26 39 14 21 1010.4 1010.5 0.4
25/02:13pm 12.9 6.9 7.1 68 2.8 SSW 28 50 15 27 1010.2 1010.3 0.4
25/02:00pm 14.5 9.5 8.0 65 3.2 SW 24 33 13 18 1010.0 1010.1 0.4
25/01:30pm 13.9 8.3 7.2 64 3.3 SW 26 33 14 18 1009.9 1010.0 0.4
25/01:00pm 13.9 8.2 8.3 69 2.8 WSW 28 35 15 19 1009.8 1009.9 0.4
25/12:43pm 13.1 7.6 7.5 69 2.7 WSW 26 50 14 27 1009.8 1009.9 0.4
25/12:30pm 12.5 7.5 8.2 75 2.1 W 24 33 13 18 1009.6 1009.7 0.4
25/12:29pm 12.4 7.5 8.3 76 2.0 W 24 33 13 18 1009.6 1009.7 0.4
25/12:13pm 11.9 5.5 8.4 79 1.7 WSW 32 46 17 25 1009.6 1009.7 0.2
25/12:08pm 12.8 6.9 7.5 70 2.6 SW 28 46 15 25 1009.6 1009.7 0.0
25/12:00pm 14.5 9.7 7.3 62 3.5 WSW 22 33 12 18 1009.4 1009.5 0.0
25/11:30am 12.9 7.7 7.4 69 2.7 SW 24 33 13 18 1009.4 1009.5 0.0
25/11:00am 13.9 9.3 6.5 61 3.6 W 20 30 11 16 1009.2 1009.3 0.0
25/10:30am 12.4 8.1 7.7 73 2.3 WSW 20 28 11 15 1009.2 1009.3 0.0
25/10:00am 13.5 9.0 5.9 60 3.6 W 19 33 10 18 1009.0 1009.1 0.0
25/09:30am 13.2 8.5 6.1 62 3.4 WSW 20 33 11 18 1008.8 1008.9 0.0
25/09:00am 12.7 8.4 8.0 73 2.3 W 20 28 11 15 1008.5 1008.6 0.4
25/08:30am 11.9 7.9 8.2 78 1.8 WSW 19 24 10 13 1008.0 1008.0 0.4
25/08:00am 11.7 8.3 9.3 85 1.2 W 17 22 9 12 1007.6 1007.6 0.4
25/07:30am 10.8 7.5 9.6 92 0.6 WNW 17 24 9 13 1007.2 1007.2 0.4
25/07:00am 10.2 7.3 9.6 96 0.3 WNW 15 20 8 11 1006.8 1006.8 0.4
25/06:30am 10.1 7.1 9.3 95 0.4 WNW 15 20 8 11 1006.4 1006.4 0.4
25/06:09am 10.1 7.1 9.2 94 0.4 W 15 20 8 11 1006.1 1006.1 0.0
25/06:00am 9.9 6.8 9.0 94 0.4 W 15 20 8 11 1006.0 1006.0 0.0
25/05:47am 10.1 5.2 8.4 89 0.8 WSW 24 39 13 21 1005.9 1005.9 0.0
25/05:30am 10.8 6.3 8.6 86 1.1 WSW 22 32 12 17 1005.7 1005.7 0.0
25/05:00am 12.3 7.5 7.4 72 2.4 W 22 32 12 17 1005.0 1005.0 0.0
25/04:30am 12.2 8.4 7.7 74 2.2 WNW 17 24 9 13 1004.7 1004.7 0.0
25/04:00am 12.5 9.1 7.6 72 2.4 WNW 15 20 8 11 1004.4 1004.4 0.0
25/03:30am 12.7 8.3 7.4 70 2.6 WNW 20 32 11 17 1004.3 1004.3 0.0
25/03:00am 12.8 8.5 7.0 68 2.8 WNW 19 28 10 15 1004.3 1004.3 0.0
25/02:30am 12.5 9.4 7.4 71 2.5 NNW 13 19 7 10 1004.1 1004.1 0.0
25/02:00am 12.3 9.5 7.0 70 2.6 NW 11 20 6 11 1004.0 1004.0 0.0
25/01:30am 12.3 9.1 6.8 69 2.6 WNW 13 22 7 12 1003.8 1003.8 0.0
25/01:00am 13.0 8.0 6.6 65 3.1 WNW 22 32 12 17 1003.5 1003.5 0.0
25/12:30am 13.1 6.2 6.5 64 3.2 WNW 32 46 17 25 1003.1 1003.1 0.0
25/12:00am 13.3 6.9 6.9 65 3.1 WNW 30 41 16 22 1002.7 1002.7 0.0
 
Date/Time
EST
Temp
°C
App
Temp
°C
Dew
Point
°C
Rel
Hum
%
Delta-T
°C
Wind Press
QNH
hPa
Press
MSL
hPa
Rain since
9am
mm
Dir  Spd
km/h
Gust
km/h
Spd
kts
Gust
kts
24/11:30pm 13.6 6.6 6.7 63 3.3 WNW 33 46 18 25 1002.6 1002.6 0.0
24/11:00pm 13.8 8.1 6.9 63 3.4 WNW 26 33 14 18 1002.7 1002.7 0.0
24/10:30pm 13.5 8.7 7.3 66 3.0 WNW 22 32 12 17 1002.6 1002.6 0.0
24/10:00pm 13.3 8.1 7.1 66 3.0 NW 24 30 13 16 1002.2 1002.2 0.0
24/09:30pm 13.7 8.0 6.8 63 3.3 WNW 26 39 14 21 1001.7 1001.7 0.0
24/09:00pm 13.6 7.2 6.9 64 3.3 NW 30 43 16 23 1001.2 1001.2 0.0
24/08:37pm 13.9 6.9 7.0 63 3.4 NW 33 52 18 28 1000.8 1000.8 0.0
24/08:30pm 13.9 6.1 6.7 62 3.5 NW 37 50 20 27 1000.9 1000.9 0.0
24/08:03pm 14.6 5.9 6.2 57 4.0 NW 41 59 22 32 1000.3 1000.3 0.0
24/08:00pm 14.6 5.6 6.2 57 4.1 NW 43 59 23 32 1000.1 1000.1 0.0
24/07:43pm 15.2 6.8 5.4 52 4.7 NW 39 57 21 31 1000.0 1000.0 0.0
24/07:30pm 15.4 7.6 5.0 50 4.9 NW 35 50 19 27 999.7 999.7 0.0
24/07:00pm 15.4 8.2 5.0 50 4.9 NW 32 46 17 25 999.1 999.1 0.0
24/06:30pm 16.0 7.4 4.7 47 5.3 NW 39 57 21 31 998.7 998.7 0.0
24/06:07pm 16.4 7.8 4.4 45 5.6 NW 39 57 21 31 998.4 998.4 0.0
24/06:00pm 16.6 8.4 4.6 45 5.7 NW 37 50 20 27 998.3 998.3 0.0
24/05:30pm 17.3 6.5 4.3 42 6.1 NW 50 70 27 38 997.8 997.8 0.0
24/05:00pm 18.2 8.6 4.4 40 6.6 NW 44 63 24 34 997.2 997.2 0.0
24/04:30pm 18.9 9.8 5.7 42 6.5 NW 43 63 23 34 997.1 997.1 0.0
24/04:00pm 18.4 7.9 5.6 43 6.3 NW 50 72 27 39 997.0 997.0 0.0
24/03:30pm 17.8 9.2 6.7 48 5.5 NW 41 63 22 34 997.2 997.2 0.0
24/03:00pm 18.4 9.0 5.6 43 6.3 NW 44 63 24 34 997.3 997.3 0.0
24/02:37pm 18.8 10.5 6.3 44 6.2 NW 39 57 21 31 997.3 997.3 0.0
24/02:30pm 18.5 9.8 6.0 44 6.2 NW 41 56 22 30 997.5 997.5 0.0
24/02:23pm 19.0 9.9 5.8 42 6.5 NW 43 61 23 33 997.5 997.5 0.0
24/02:00pm 19.0 9.5 4.0 37 7.2 NW 43 59 23 32 997.4 997.4 0.0
24/01:40pm 19.0 9.8 5.5 41 6.6 NW 43 61 23 33 997.7 997.7 0.0
24/01:30pm 18.6 9.3 5.1 41 6.5 NW 43 57 23 31 997.8 997.8 0.0
24/01:14pm 17.7 8.7 4.3 41 6.3 NW 41 61 22 33 997.8 997.8 0.0
24/01:00pm 18.4 8.3 3.5 37 7.0 NW 46 59 25 32 998.0 998.0 0.0
24/12:43pm 20.1 11.0 3.8 34 7.8 NW 41 59 22 32 998.0 998.0 0.0
24/12:30pm 19.2 10.0 3.4 35 7.4 NW 41 57 22 31 998.3 998.3 0.0
24/12:00pm 18.1 9.4 4.3 40 6.6 NW 39 59 21 32 998.6 998.6 0.0
24/11:37am 17.3 7.8 3.9 41 6.3 NW 43 61 23 33 998.8 998.8 0.0
24/11:30am 17.7 7.5 3.2 38 6.7 NW 46 61 25 33 998.7 998.7 0.0
24/11:00am 17.5 8.9 4.5 42 6.2 NW 39 61 21 33 998.7 998.7 0.0
24/10:30am 17.2 9.0 4.9 44 5.9 NW 37 52 20 28 999.1 999.1 0.0
24/10:00am 16.6 9.0 5.9 49 5.2 NW 35 52 19 28 999.4 999.4 0.0
24/09:42am 16.1 8.9 6.0 51 4.9 NW 33 54 18 29 999.4 999.4 0.0
24/09:30am 16.0 8.0 5.9 51 4.9 NW 37 48 20 26 999.4 999.4 0.0
24/09:00am 15.1 7.9 5.9 54 4.4 NW 33 48 18 26 999.4 999.4 0.0
24/08:30am 14.2 7.2 6.1 58 3.9 NW 32 43 17 23 999.4 999.4 0.0
24/08:02am 13.4 6.1 7.4 67 2.9 NW 35 54 19 29 999.2 999.2 0.0
24/08:00am 13.5 5.5 7.3 66 3.0 NW 39 54 21 29 999.1 999.1 0.0
24/07:30am 13.6 5.4 6.5 62 3.4 NW 39 57 21 31 998.5 998.5 0.0
24/07:26am 13.6 6.5 6.2 61 3.5 NW 33 54 18 29 998.4 998.4 0.0
24/07:22am 13.4 7.3 6.5 63 3.3 NW 28 43 15 23 998.3 998.3 0.0
24/07:00am 12.9 9.1 7.4 69 2.7 NNW 17 24 9 13 998.1 998.1 0.0
24/06:30am 12.8 8.8 6.8 67 2.9 N 17 24 9 13 997.3 997.3 0.0
24/06:00am 12.6 8.1 7.1 69 2.7 NNE 20 32 11 17 997.3 997.3 0.0
24/05:30am 12.4 8.5 7.1 70 2.6 NNE 17 22 9 12 997.9 997.9 0.0
24/05:00am 12.0 7.9 6.1 67 2.8 NNE 17 20 9 11 998.1 998.1 0.0
24/04:30am 12.4 8.9 5.6 63 3.2 NNE 13 17 7 9 998.5 998.5 0.0
24/04:00am 12.3 8.8 5.5 63 3.2 N 13 17 7 9 998.5 998.5 0.0
24/03:30am 12.3 9.2 5.5 63 3.2 N 11 15 6 8 998.7 998.7 0.0
24/03:00am 12.7 8.8 5.4 61 3.4 NW 15 20 8 11 998.8 998.8 0.0
24/02:30am 12.8 9.4 5.7 62 3.3 NNW 13 19 7 10 999.1 999.1 0.0
24/02:00am 13.2 10.3 6.3 63 3.3 N 11 15 6 8 999.0 999.0 0.0
24/01:30am 13.8 10.5 6.2 60 3.6 N 13 20 7 11 998.9 998.9 0.0
24/01:00am 13.3 10.8 6.4 63 3.3 NNW 9 15 5 8 999.0 999.0 0.0
24/12:30am 13.7 11.3 7.0 64 3.3 NNW 9 17 5 9 999.0 999.0 0.0
24/12:00am 14.2 11.2 7.9 66 3.1 NNW 13 19 7 10 998.9 998.9 0.0
 
Date/Time
EST
Temp
°C
App
Temp
°C
Dew
Point
°C
Rel
Hum
%
Delta-T
°C
Wind Press
QNH
hPa
Press
MSL
hPa
Rain since
9am
mm
Dir  Spd
km/h
Gust
km/h
Spd
kts
Gust
kts
23/11:30pm 13.6 10.5 8.7 72 2.5 NW 15 19 8 10 998.8 998.8 0.0
23/11:00pm 14.7 10.9 9.1 69 2.9 WNW 19 24 10 13 998.8 998.8 0.0
23/10:30pm 14.7 11.5 10.1 74 2.4 WNW 17 22 9 12 998.7 998.7 0.0
23/10:00pm 13.7 10.9 9.9 78 2.0 NW 15 19 8 10 998.9 998.9 0.0
23/09:30pm 13.6 11.9 9.8 78 2.0 NNW 9 13 5 7 998.8 998.8 0.0
23/09:00pm 14.5 13.2 10.1 75 2.3 NNW 7 11 4 6 998.8 998.8 0.0
23/08:30pm 15.1 13.1 10.3 73 2.5 NW 11 13 6 7 998.6 998.6 0.0
23/08:00pm 15.7 13.0 10.2 70 2.9 WNW 15 20 8 11 998.2 998.2 0.0
23/07:30pm 16.1 13.0 10.2 68 3.1 W 17 22 9 12 997.8 997.8 0.0
23/07:00pm 16.2 12.7 10.1 67 3.2 W 19 28 10 15 997.3 997.3 0.0
23/06:30pm 16.4 12.5 9.6 64 3.5 W 20 33 11 18 997.0 997.0 0.0
23/06:02pm 17.0 11.6 9.4 61 4.0 WSW 28 50 15 27 995.8 995.8 0.0
23/06:00pm 17.0 12.0 9.7 62 3.9 WSW 26 43 14 23 995.7 995.7 0.0
23/05:34pm 16.5 10.1 10.8 69 3.0 SW 35 54 19 29 994.8 994.8 0.0
23/05:30pm 16.6 9.4 10.7 68 3.1 SW 39 54 21 29 994.6 994.6 0.0
23/05:00pm 17.3 10.0 11.6 69 3.1 SW 41 59 22 32 992.8 992.8 0.0
23/04:30pm 20.3 10.8 11.2 56 5.0 WSW 52 74 28 40 991.2 991.2 0.0
23/04:29pm 21.0 11.1 11.1 53 5.5 W 54 74 29 40 991.1 991.1 0.0
23/04:27pm 23.4 13.8 12.1 49 6.4 W 54 74 29 40 991.0 991.0 0.0
23/04:02pm 29.9 23.6 7.2 24 12.3 WNW 30 57 16 31 989.2 989.2 0.0
23/04:00pm 30.0 24.0 7.2 24 12.4 NW 28 39 15 21 989.2 989.2 0.0
23/03:30pm 30.3 23.3 6.9 23 12.6 NW 33 46 18 25 988.7 988.7 0.0
23/03:06pm 31.2 24.0 7.6 23 12.9 NW 35 54 19 29 988.8 988.8 0.0
23/03:00pm 31.3 24.0 7.1 22 13.3 NW 35 50 19 27 989.0 989.0 0.0
23/02:30pm 30.8 22.5 6.0 21 13.2 NNW 39 54 21 29 988.8 988.8 0.0
23/02:23pm 30.5 22.3 6.4 22 12.9 NNW 39 57 21 31 989.0 989.0 0.0
23/02:00pm 30.1 23.1 6.1 22 12.9 NNW 32 48 17 26 989.3 989.3 0.0
23/01:40pm 28.9 24.3 5.7 23 12.1 NW 19 48 10 26 989.8 989.8 0.0
23/01:30pm 24.8 22.7 9.9 39 8.2 WNW 11 15 6 8 990.1 990.1 0.0
23/01:00pm 22.0 20.5 12.0 53 5.7 SSW 11 17 6 9 990.8 990.8 0.0
23/12:30pm 22.7 19.3 11.1 48 6.4 S 20 30 11 16 991.5 991.5 0.0
23/12:19pm 23.3 20.0 11.0 46 6.8 SSW 19 28 10 15 991.8 991.8 0.0
23/12:00pm 28.5 21.8 3.4 20 12.7 N 28 41 15 22 991.6 991.6 0.0
23/11:30am 27.9 21.4 2.9 20 12.4 N 26 44 14 24 992.2 992.2 0.0
23/11:00am 26.4 19.6 3.0 22 11.6 NNE 28 43 15 23 993.0 993.0 0.0
23/10:42am 25.5 18.4 1.6 21 11.4 N 28 46 15 25 993.8 993.8 0.0
23/10:30am 25.2 18.0 0.7 20 11.4 N 28 43 15 23 994.3 994.3 0.0
23/10:00am 25.1 17.8 -0.1 19 11.7 N 28 41 15 22 995.7 995.7 0.0
23/09:44am 24.8 17.4 -0.4 19 11.5 NNW 28 46 15 25 996.2 996.2 0.0
23/09:30am 24.9 18.9 1.1 21 11.2 NNW 22 37 12 20 996.6 996.6 0.0
23/09:00am 22.7 17.1 1.1 24 10.0 N 20 33 11 18 996.7 996.7 0.0

Latest Capital City Observations: Canberra | Sydney | Melbourne | Brisbane | Adelaide | Perth | Hobart | Darwin

Other Formats:

Comma delimited format used in spreadsheet applications
http://www.bom.gov.au/fwo/IDV60901/IDV60901.94865.axf

JavaScript Object Notation format (JSON) in row-major order
http://www.bom.gov.au/fwo/IDV60901/IDV60901.94865.json